Disclaimer

Please do not use the information listed here in-flight or in-navigation, as they are not provided to us by the airports but are provided by volunteers, so they might be outdated.

Search


Regions


Airport information page

No radio frequency information is available.

Airport informations:
Latitude: 46° 51' 43.90" N
Longitude: 001° 43' 50.40" E
Elevation: 529 feet - 161 meters
Operating hours: Remarks
Operating agency: Civil government, landing fees and diplomatic clearance may be required
Timezone: UTC+1(+2DT) - Last Sunday in March to last Sunday in October
Fuel: Jet A1, without icing nhibitor.

100/130 MIL Spec, low lead, aviation gasoline (BLUE)

Runway information:
04/22 - 11483 x 148 feet< - >3500 x 45 meters

Recent METARs:
LFLX 151700Z AUTO 10004KT 4500 -SNRA BR BKN003/// OVC012/// ///TCU 02/01 Q1014 TEMPO 1400 RA OVC003
LFLX 151730Z AUTO 10004KT 3300 +SNRA BR BKN003/// OVC011/// ///TCU 02/02 Q1013 TEMPO 2000 RA BKN004
LFLX 151800Z AUTO 11006KT 2300 -SNRA BR BKN006/// OVC010/// ///TCU 03/03 Q1013 TEMPO RA BKN004

Airport on the map: